createdAt,value
2022-09-13T00:01:14.711Z,24.03
2022-09-13T00:03:42.586Z,23.79
2022-09-13T00:06:13.086Z,23.64
2022-09-13T00:08:43.197Z,23.71
2022-09-13T00:11:24.770Z,23.86
2022-09-13T00:13:53.239Z,23.56
2022-09-13T00:16:23.167Z,23.67
2022-09-13T00:18:51.644Z,23.79
2022-09-13T00:21:21.423Z,23.76
2022-09-13T00:23:51.916Z,23.80
2022-09-13T00:26:24.078Z,23.74
2022-09-13T00:28:53.497Z,23.75
2022-09-13T00:31:26.028Z,23.92
2022-09-13T00:33:54.525Z,23.95
2022-09-13T00:36:22.039Z,23.83
2022-09-13T00:38:49.559Z,23.73
2022-09-13T00:41:19.942Z,23.84
2022-09-13T00:43:52.297Z,24.18
2022-09-13T00:46:44.210Z,24.23
2022-09-13T00:49:24.329Z,24.39
2022-09-13T00:52:01.927Z,24.64
2022-09-13T00:54:42.446Z,24.84
2022-09-13T00:57:13.517Z,23.87
2022-09-13T00:59:48.106Z,23.62
2022-09-13T01:02:15.917Z,23.30
2022-09-13T01:04:44.323Z,23.67
2022-09-13T01:07:15.299Z,23.96
2022-09-13T01:09:45.888Z,23.64
2022-09-13T01:12:26.643Z,23.34
2022-09-13T01:14:57.551Z,23.31
2022-09-13T01:17:27.544Z,23.34
2022-09-13T01:19:55.206Z,23.23
2022-09-13T01:22:33.310Z,23.49
2022-09-13T01:25:20.905Z,23.23
2022-09-13T01:28:00.847Z,23.57
2022-09-13T01:30:57.633Z,23.63
2022-09-13T01:33:59.933Z,23.21
2022-09-13T01:36:47.459Z,23.38
2022-09-13T01:39:22.335Z,23.51
2022-09-13T01:42:17.588Z,22.68
2022-09-13T01:44:58.556Z,22.73
2022-09-13T01:47:38.919Z,22.87
2022-09-13T01:50:11.269Z,23.05
2022-09-13T01:52:52.688Z,22.87
2022-09-13T01:55:59.149Z,23.06
2022-09-13T01:58:49.843Z,23.02
2022-09-13T02:01:24.376Z,23.25
2022-09-13T02:03:55.844Z,23.39
2022-09-13T02:06:50.070Z,23.32
2022-09-13T02:09:28.317Z,23.32
2022-09-13T02:12:08.376Z,23.26
2022-09-13T02:14:39.144Z,23.54
2022-09-13T02:17:12.882Z,23.64
2022-09-13T02:20:06.474Z,23.44
2022-09-13T02:22:39.317Z,23.40
2022-09-13T02:25:10.638Z,23.16
2022-09-13T02:27:41.459Z,22.78
2022-09-13T02:30:11.495Z,22.07
2022-09-13T02:33:01.963Z,21.65
2022-09-13T02:35:37.856Z,22.16
2022-09-13T02:38:13.071Z,22.34
2022-09-13T02:40:49.597Z,22.56
2022-09-13T02:43:29.217Z,22.86
2022-09-13T02:46:20.602Z,22.94
2022-09-13T02:49:26.542Z,22.76
2022-09-13T02:51:56.258Z,22.50
2022-09-13T02:54:37.314Z,22.62
2022-09-13T02:57:53.961Z,22.54
2022-09-13T03:00:22.034Z,22.57
2022-09-13T03:02:55.045Z,22.24
2022-09-13T03:05:23.054Z,22.23
2022-09-13T03:07:51.623Z,22.47
2022-09-13T03:10:20.594Z,22.50
2022-09-13T03:13:20.839Z,22.51
2022-09-13T03:15:55.930Z,22.43
2022-09-13T03:18:41.621Z,22.46
2022-09-13T03:21:14.782Z,22.61
2022-09-13T03:24:11.837Z,22.39
2022-09-13T03:26:49.750Z,22.43
2022-09-13T03:29:37.694Z,22.04
2022-09-13T03:32:27.167Z,21.04
2022-09-13T03:35:19.075Z,20.86
2022-09-13T03:38:05.810Z,21.25
2022-09-13T03:40:33.320Z,21.56
2022-09-13T03:43:13.755Z,21.63
2022-09-13T03:45:50.294Z,21.73
2022-09-13T03:48:18.714Z,21.65
2022-09-13T03:50:48.144Z,20.86
2022-09-13T03:53:22.076Z,20.36
2022-09-13T03:55:49.701Z,20.86
2022-09-13T03:58:19.379Z,21.27
2022-09-13T04:00:47.126Z,21.83
2022-09-13T04:03:15.311Z,21.72
2022-09-13T04:05:42.766Z,21.75
2022-09-13T04:08:10.265Z,21.92
2022-09-13T04:10:37.855Z,21.91
2022-09-13T04:13:06.662Z,21.41
2022-09-13T04:15:34.649Z,21.16
2022-09-13T04:18:02.217Z,21.18
2022-09-13T04:20:29.975Z,20.48
2022-09-13T04:23:00.720Z,19.93
2022-09-13T04:25:28.211Z,19.83
2022-09-13T04:27:56.545Z,19.91
2022-09-13T04:30:24.015Z,20.07
2022-09-13T04:32:51.776Z,20.34
2022-09-13T04:35:20.037Z,20.17
2022-09-13T04:37:47.517Z,20.29
2022-09-13T04:40:15.263Z,20.53
2022-09-13T04:42:44.799Z,20.34
2022-09-13T04:45:12.447Z,20.21
2022-09-13T04:47:39.907Z,20.33
2022-09-13T04:50:10.269Z,20.22
2022-09-13T04:52:39.939Z,20.42
2022-09-13T04:55:07.858Z,20.21
2022-09-13T04:57:35.362Z,20.18
2022-09-13T05:00:03.475Z,20.23
2022-09-13T05:02:31.455Z,20.42
2022-09-13T05:04:59.085Z,20.56
2022-09-13T05:07:28.833Z,20.74
2022-09-13T05:09:56.527Z,20.57
2022-09-13T05:12:24.150Z,20.08
2022-09-13T05:14:51.647Z,20.23
2022-09-13T05:17:19.283Z,20.56
2022-09-13T05:19:47.009Z,20.79
2022-09-13T05:22:14.556Z,20.79
2022-09-13T05:24:43.198Z,20.84
2022-09-13T05:27:13.017Z,21.02
2022-09-13T05:29:41.250Z,21.12
2022-09-13T05:32:08.810Z,21.14
2022-09-13T05:34:36.373Z,21.32
2022-09-13T05:37:04.093Z,21.53
2022-09-13T05:39:48.369Z,21.23
2022-09-13T05:42:19.489Z,21.29
2022-09-13T05:44:47.113Z,21.31
2022-09-13T05:47:14.725Z,21.12
2022-09-13T05:50:08.355Z,21.35
2022-09-13T05:52:29.841Z,21.17
2022-09-13T05:54:57.414Z,20.98
2022-09-13T05:57:24.967Z,20.70
2022-09-13T05:59:52.637Z,21.28
2022-09-13T06:02:20.253Z,21.42
2022-09-13T06:04:50.723Z,21.72
2022-09-13T06:07:18.699Z,21.71
2022-09-13T06:09:46.231Z,22.11
2022-09-13T06:12:14.004Z,22.23
2022-09-13T06:14:41.798Z,22.25
2022-09-13T06:17:15.134Z,22.47
2022-09-13T06:19:43.663Z,22.90
2022-09-13T06:22:11.368Z,22.95
2022-09-13T06:24:41.327Z,23.12
2022-09-13T06:27:10.444Z,23.52
2022-09-13T06:29:38.019Z,23.46
2022-09-13T06:37:45.618Z,23.67
2022-09-13T06:45:11.340Z,24.21
2022-09-13T06:47:39.953Z,24.45
2022-09-13T06:50:14.380Z,23.99
2022-09-13T06:52:44.305Z,24.12
2022-09-13T06:59:04.223Z,24.01
2022-09-13T07:02:11.902Z,25.58
2022-09-13T07:36:46.055Z,33.99
2022-09-13T07:39:22.016Z,34.92
2022-09-13T07:41:57.375Z,34.06
2022-09-13T07:44:47.995Z,34.78
2022-09-13T07:48:34.811Z,32.05
2022-09-13T07:51:05.801Z,32.57
2022-09-13T07:53:46.188Z,34.64
2022-09-13T07:56:41.931Z,33.57
2022-09-13T08:00:05.959Z,32.98
2022-09-13T08:02:55.069Z,34.03
2022-09-13T08:08:55.424Z,35.55
2022-09-13T08:11:26.218Z,33.59
2022-09-13T08:14:18.402Z,33.67
2022-09-13T08:16:46.162Z,33.59
2022-09-13T08:19:18.471Z,33.07
2022-09-13T08:21:47.060Z,35.58
2022-09-13T08:24:23.577Z,35.65
2022-09-13T08:26:52.298Z,36.26
2022-09-13T08:29:20.019Z,35.65
2022-09-13T08:31:57.269Z,36.15
2022-09-13T08:34:24.981Z,37.88
2022-09-13T08:36:52.515Z,36.58
2022-09-13T08:39:20.081Z,38.27
2022-09-13T08:42:11.031Z,39.26
2022-09-13T08:44:50.578Z,36.35
2022-09-13T08:47:36.220Z,34.75
2022-09-13T08:50:23.650Z,35.81
2022-09-13T08:53:07.298Z,36.48
2022-09-13T08:55:43.314Z,35.19
2022-09-13T08:58:43.060Z,32.73
2022-09-13T09:01:22.638Z,35.74
2022-09-13T09:04:08.846Z,33.59
2022-09-13T09:06:36.970Z,37.41
2022-09-13T09:09:07.789Z,34.39
2022-09-13T09:12:21.676Z,34.32
2022-09-13T09:15:03.798Z,36.34
2022-09-13T09:17:55.942Z,32.39
2022-09-13T09:20:28.872Z,32.95
2022-09-13T09:22:56.433Z,32.01
2022-09-13T09:25:26.817Z,35.91
2022-09-13T09:27:55.784Z,37.25
2022-09-13T09:30:56.402Z,37.53
2022-09-13T09:33:55.194Z,36.83
2022-09-13T09:36:44.721Z,37.60
2022-09-13T09:39:16.437Z,36.85
2022-09-13T09:41:47.873Z,36.46
2022-09-13T09:44:23.767Z,36.68
2022-09-13T09:46:57.819Z,37.19
2022-09-13T09:50:10.117Z,37.59
2022-09-13T09:53:03.169Z,36.15
2022-09-13T09:55:35.064Z,35.01
2022-09-13T09:58:06.537Z,35.72
2022-09-13T10:00:58.178Z,35.74
2022-09-13T10:03:31.810Z,35.54
2022-09-13T10:06:13.129Z,34.74
2022-09-13T10:09:16.720Z,34.50
2022-09-13T10:11:54.034Z,34.37
2022-09-13T10:15:15.551Z,32.79
2022-09-13T10:17:51.029Z,33.30
2022-09-13T10:20:23.484Z,31.50
2022-09-13T10:23:23.596Z,31.70
2022-09-13T10:26:02.883Z,33.16
2022-09-13T10:28:35.281Z,32.11
2022-09-13T10:31:16.874Z,32.88
2022-09-13T10:34:01.562Z,31.99
2022-09-13T10:39:23.565Z,32.01
2022-09-13T10:41:59.792Z,31.95
2022-09-13T10:44:47.014Z,32.13
2022-09-13T10:47:22.342Z,33.02
2022-09-13T10:49:57.172Z,32.81
2022-09-13T10:52:43.566Z,31.48
2022-09-13T10:55:29.158Z,32.81
2022-09-13T10:58:17.565Z,32.64
2022-09-13T11:01:50.060Z,32.37
2022-09-13T11:05:20.099Z,31.20
2022-09-13T11:08:09.071Z,32.40
2022-09-13T11:10:43.774Z,31.43
2022-09-13T11:13:34.862Z,32.36
2022-09-13T11:16:20.384Z,32.77
2022-09-13T11:19:08.765Z,32.90
2022-09-13T11:22:18.791Z,32.62
2022-09-13T11:25:23.298Z,31.77
2022-09-13T11:28:08.349Z,31.70
2022-09-13T11:30:41.511Z,32.26
2022-09-13T11:33:49.627Z,32.15
2022-09-13T11:36:58.177Z,32.19
2022-09-13T11:39:32.931Z,32.41
2022-09-13T11:42:00.467Z,32.69
2022-09-13T11:45:30.669Z,31.87
2022-09-13T11:48:17.248Z,31.80
2022-09-13T11:50:50.623Z,31.54
2022-09-13T11:54:01.830Z,32.01
2022-09-13T11:56:39.010Z,31.99
2022-09-13T11:59:26.796Z,32.75
2022-09-13T12:02:03.343Z,32.45
2022-09-13T12:04:42.266Z,32.54
2022-09-13T12:07:19.381Z,32.68
2022-09-13T12:10:02.627Z,32.65
2022-09-13T12:12:36.932Z,33.36
2022-09-13T12:15:17.690Z,32.25
2022-09-13T12:17:53.368Z,32.12
2022-09-13T12:21:17.077Z,32.52
2022-09-13T12:27:43.218Z,32.83
2022-09-13T12:30:21.062Z,33.20
2022-09-13T12:32:49.581Z,32.92
2022-09-13T12:35:30.297Z,32.27
2022-09-13T12:38:29.374Z,32.75
2022-09-13T12:41:25.699Z,32.98
2022-09-13T12:44:14.800Z,33.08
2022-09-13T12:47:39.187Z,33.57
2022-09-13T12:53:32.937Z,32.86
2022-09-13T12:56:11.034Z,32.67
2022-09-13T12:58:56.673Z,32.93
2022-09-13T13:01:34.647Z,33.15
2022-09-13T13:04:10.901Z,32.42
2022-09-13T13:07:34.753Z,32.85
2022-09-13T13:13:55.648Z,32.92
2022-09-13T13:19:41.806Z,32.20
2022-09-13T13:29:08.424Z,32.36
2022-09-13T13:34:53.624Z,33.13
2022-09-13T13:40:29.753Z,32.35
2022-09-13T13:49:39.554Z,32.55
2022-09-13T14:35:42.264Z,32.59
2022-09-13T15:11:53.190Z,32.58
2022-09-13T15:31:33.596Z,31.68
2022-09-13T15:34:22.006Z,31.34
2022-09-13T15:37:01.715Z,31.44
2022-09-13T15:39:29.554Z,31.03
2022-09-13T15:42:00.105Z,31.21
2022-09-13T15:44:32.722Z,31.13
2022-09-13T15:47:04.063Z,30.96
2022-09-13T16:12:34.302Z,29.76
2022-09-13T16:20:21.636Z,29.64
2022-09-13T16:22:53.102Z,29.53
2022-09-13T16:28:24.585Z,28.82
2022-09-13T16:30:42.183Z,29.81
2022-09-13T16:34:33.963Z,30.32
2022-09-13T16:41:11.671Z,30.37
2022-09-13T16:44:55.211Z,30.68
2022-09-13T16:51:06.728Z,30.83
2022-09-13T16:53:38.310Z,30.47
2022-09-13T16:56:12.368Z,30.52
2022-09-13T16:58:41.626Z,30.36
2022-09-13T17:01:14.827Z,30.12
2022-09-13T17:03:54.031Z,29.59
2022-09-13T17:06:24.044Z,30.06
2022-09-13T17:09:04.495Z,29.84
2022-09-13T17:11:35.349Z,29.55
2022-09-13T17:14:05.184Z,29.57
2022-09-13T17:16:54.119Z,29.32
2022-09-13T17:19:25.979Z,29.02
2022-09-13T17:21:57.444Z,29.24
2022-09-13T17:24:27.102Z,28.87
2022-09-13T17:26:56.877Z,28.56
2022-09-13T17:29:31.689Z,28.65
2022-09-13T17:32:01.469Z,28.95
2022-09-13T17:34:32.104Z,29.05
2022-09-13T17:37:50.013Z,28.77
2022-09-13T17:40:20.219Z,28.87
2022-09-13T17:42:51.163Z,28.60
2022-09-13T17:45:19.470Z,28.86
2022-09-13T17:47:53.168Z,28.74
2022-09-13T17:50:33.444Z,28.57
2022-09-13T17:53:08.492Z,28.42
2022-09-13T17:55:49.821Z,28.21
2022-09-13T17:58:22.219Z,28.23
2022-09-13T18:01:04.543Z,28.16
2022-09-13T18:03:36.604Z,28.38
2022-09-13T18:07:14.664Z,28.38
2022-09-13T18:09:43.466Z,28.46
2022-09-13T18:12:11.943Z,28.11
2022-09-13T18:16:04.523Z,28.15
2022-09-13T18:18:35.063Z,28.23
2022-09-13T18:21:09.537Z,28.42
2022-09-13T18:23:37.199Z,28.08
2022-09-13T18:26:11.771Z,28.09
2022-09-13T18:28:45.306Z,28.34
2022-09-13T18:31:24.214Z,28.30
2022-09-13T18:34:00.505Z,28.22
2022-09-13T18:36:31.127Z,28.48
2022-09-13T18:39:05.060Z,28.14
2022-09-13T18:41:40.388Z,28.36
2022-09-13T18:44:21.123Z,28.32
2022-09-13T18:46:50.672Z,28.31
2022-09-13T18:49:25.164Z,28.47
2022-09-13T18:51:58.127Z,28.43
2022-09-13T18:54:35.677Z,28.60
2022-09-13T18:57:03.654Z,28.40
2022-09-13T18:59:38.863Z,28.64
2022-09-13T19:02:29.168Z,28.36
2022-09-13T19:16:32.703Z,27.52
2022-09-13T19:19:04.886Z,27.82
2022-09-13T19:19:20.771Z,27.33
2022-09-13T19:21:51.218Z,27.66
2022-09-13T19:30:48.096Z,27.51
2022-09-13T19:37:20.866Z,27.25
2022-09-13T19:49:26.984Z,27.35
2022-09-13T20:41:00.932Z,26.53
2022-09-13T20:43:49.226Z,26.47
2022-09-13T20:46:36.461Z,26.71
2022-09-13T20:49:05.646Z,26.67
2022-09-13T21:16:48.845Z,26.59
2022-09-13T21:19:16.401Z,26.50
2022-09-13T21:21:44.053Z,26.61
2022-09-13T21:24:12.760Z,26.69
2022-09-13T21:26:42.478Z,26.69
2022-09-13T21:29:14.436Z,26.57
2022-09-13T21:31:42.474Z,26.26
2022-09-13T21:34:20.216Z,26.30
2022-09-13T21:36:53.719Z,26.37
2022-09-13T21:39:21.435Z,26.38
2022-09-13T21:41:49.622Z,26.42
2022-09-13T21:44:19.672Z,26.49
2022-09-13T21:46:47.307Z,26.58
2022-09-13T21:49:15.907Z,26.16
2022-09-13T21:51:46.639Z,26.69
2022-09-13T21:54:19.437Z,26.62
2022-09-13T21:56:54.900Z,26.67
2022-09-13T21:59:29.732Z,26.38
2022-09-13T22:02:32.086Z,26.37
2022-09-13T22:05:28.468Z,26.42
2022-09-13T22:08:22.075Z,26.46
2022-09-13T22:10:57.282Z,26.06
2022-09-13T22:13:31.423Z,26.02
2022-09-13T22:16:10.949Z,26.03
2022-09-13T22:18:42.560Z,26.32
2022-09-13T22:21:19.211Z,26.25
2022-09-13T22:23:49.787Z,25.86
2022-09-13T22:26:24.311Z,25.91
2022-09-13T22:28:55.891Z,26.08
2022-09-13T22:31:43.145Z,26.16
2022-09-13T22:34:22.051Z,26.35
2022-09-13T22:37:00.445Z,26.30
2022-09-13T22:39:32.017Z,26.33
2022-09-13T22:42:00.580Z,26.74
2022-09-13T22:44:33.423Z,26.55
2022-09-13T22:47:07.519Z,26.77
2022-09-13T22:49:41.207Z,26.55
2022-09-13T22:52:09.243Z,26.28
2022-09-13T22:54:39.075Z,26.24
2022-09-13T22:57:09.363Z,26.30
2022-09-13T22:59:37.188Z,26.15
2022-09-13T23:02:04.898Z,26.38
2022-09-13T23:04:35.011Z,26.42
2022-09-13T23:07:12.478Z,25.82
2022-09-13T23:09:41.417Z,25.58
2022-09-13T23:12:15.033Z,25.81
2022-09-13T23:14:45.409Z,25.68
2022-09-13T23:17:18.875Z,25.73
2022-09-13T23:19:46.592Z,25.81
2022-09-13T23:22:25.321Z,25.92
2022-09-13T23:25:00.359Z,26.06
2022-09-13T23:27:28.171Z,26.09
2022-09-13T23:37:31.239Z,26.14
2022-09-13T23:41:28.878Z,26.22
2022-09-13T23:44:09.140Z,26.28
2022-09-13T23:46:50.841Z,26.16
2022-09-13T23:50:02.870Z,26.09
2022-09-13T23:52:48.185Z,26.32
2022-09-13T23:55:41.747Z,26.37
2022-09-13T23:58:11.826Z,26.03
